createdAt,value
2023-03-29T00:00:35.984Z,100.00
2023-03-29T00:03:04.958Z,100.00
2023-03-29T00:05:35.220Z,99.69
2023-03-29T00:08:04.368Z,97.49
2023-03-29T00:10:35.057Z,97.75
2023-03-29T00:13:03.297Z,97.10
2023-03-29T00:15:30.902Z,95.94
2023-03-29T00:17:59.410Z,96.95
2023-03-29T00:20:28.926Z,95.04
2023-03-29T00:22:56.409Z,94.21
2023-03-29T00:25:23.967Z,94.72
2023-03-29T00:27:51.365Z,96.62
2023-03-29T00:30:19.048Z,94.16
2023-03-29T00:32:46.964Z,93.23
2023-03-29T00:35:16.710Z,94.71
2023-03-29T00:37:47.260Z,95.77
2023-03-29T00:40:15.626Z,95.69
2023-03-29T00:42:46.628Z,95.74
2023-03-29T00:45:19.675Z,96.27
2023-03-29T00:48:03.009Z,96.76
2023-03-29T00:50:39.999Z,95.04
2023-03-29T00:53:15.306Z,95.76
2023-03-29T00:55:55.205Z,94.86
2023-03-29T00:58:32.024Z,96.37
2023-03-29T01:01:08.874Z,96.67
2023-03-29T01:03:54.586Z,98.33
2023-03-29T01:06:29.162Z,100.00
2023-03-29T01:09:01.355Z,100.00
2023-03-29T01:11:35.046Z,100.00
2023-03-29T01:14:10.342Z,100.00
2023-03-29T01:16:39.544Z,100.00
2023-03-29T01:19:10.511Z,100.00
2023-03-29T01:21:58.542Z,100.00
2023-03-29T01:24:29.290Z,100.00
2023-03-29T01:27:23.583Z,100.00
2023-03-29T01:30:04.311Z,100.00
2023-03-29T01:32:44.668Z,100.00
2023-03-29T01:35:22.085Z,100.00
2023-03-29T01:37:59.125Z,100.00
2023-03-29T01:40:31.189Z,100.00
2023-03-29T01:43:21.985Z,100.00
2023-03-29T01:46:01.365Z,100.00
2023-03-29T01:48:36.533Z,100.00
2023-03-29T01:51:13.035Z,100.00
2023-03-29T01:53:49.960Z,100.00
2023-03-29T01:56:21.826Z,100.00
2023-03-29T01:58:55.065Z,100.00
2023-03-29T02:01:28.301Z,100.00
2023-03-29T02:04:03.125Z,100.00
2023-03-29T02:06:33.071Z,100.00
2023-03-29T02:09:01.646Z,100.00
2023-03-29T02:11:29.525Z,100.00
2023-03-29T02:14:00.138Z,100.00
2023-03-29T02:16:28.007Z,100.00
2023-03-29T02:18:57.769Z,100.00
2023-03-29T02:21:56.012Z,100.00
2023-03-29T02:24:25.240Z,100.00
2023-03-29T02:26:52.849Z,100.00
2023-03-29T02:29:20.364Z,100.00
2023-03-29T02:31:55.755Z,100.00
2023-03-29T02:34:30.236Z,99.01
2023-03-29T02:37:06.931Z,99.64
2023-03-29T02:39:37.262Z,98.95
2023-03-29T02:42:07.311Z,98.52
2023-03-29T02:44:40.882Z,97.54
2023-03-29T02:47:24.522Z,97.67
2023-03-29T02:49:52.449Z,97.09
2023-03-29T02:52:27.545Z,97.01
2023-03-29T02:54:56.078Z,97.51
2023-03-29T02:57:28.752Z,95.90
2023-03-29T02:59:58.966Z,94.74
2023-03-29T03:02:27.880Z,96.22
2023-03-29T03:04:59.539Z,95.68
2023-03-29T03:07:28.756Z,95.29
2023-03-29T03:09:57.082Z,96.06
2023-03-29T03:12:26.371Z,95.49
2023-03-29T03:14:54.748Z,94.95
2023-03-29T03:17:23.204Z,95.07
2023-03-29T03:19:51.003Z,95.43
2023-03-29T03:22:18.477Z,95.60
2023-03-29T03:24:46.242Z,97.19
2023-03-29T03:27:14.264Z,96.85
2023-03-29T03:29:41.666Z,98.22
2023-03-29T03:32:12.449Z,98.06
2023-03-29T03:34:41.070Z,98.43
2023-03-29T03:37:08.542Z,96.38
2023-03-29T03:39:37.968Z,95.12
2023-03-29T03:42:08.155Z,96.03
2023-03-29T03:44:38.055Z,96.68
2023-03-29T03:47:06.830Z,97.80
2023-03-29T03:49:34.788Z,97.14
2023-03-29T03:52:02.486Z,96.12
2023-03-29T03:54:30.130Z,97.15
2023-03-29T03:56:59.092Z,97.72
2023-03-29T03:59:26.764Z,96.91
2023-03-29T04:01:59.986Z,96.26
2023-03-29T04:04:28.935Z,96.78
2023-03-29T04:07:02.702Z,97.62
2023-03-29T04:09:31.344Z,98.54
2023-03-29T04:12:01.781Z,97.22
2023-03-29T04:14:31.742Z,97.47
2023-03-29T04:16:59.086Z,96.50
2023-03-29T04:19:27.435Z,96.04
2023-03-29T04:21:54.815Z,95.53
2023-03-29T04:24:23.232Z,94.95
2023-03-29T04:26:50.735Z,94.08
2023-03-29T04:29:21.024Z,94.51
2023-03-29T04:31:48.634Z,93.34
2023-03-29T04:34:16.097Z,93.65
2023-03-29T04:36:45.046Z,95.70
2023-03-29T04:39:12.426Z,95.75
2023-03-29T04:41:42.990Z,96.41
2023-03-29T04:44:10.743Z,95.02
2023-03-29T04:46:40.408Z,93.05
2023-03-29T04:49:09.017Z,93.54
2023-03-29T04:51:37.309Z,94.42
2023-03-29T04:54:06.650Z,94.96
2023-03-29T04:56:34.383Z,93.88
2023-03-29T04:59:01.747Z,93.08
2023-03-29T05:01:29.788Z,93.16
2023-03-29T05:03:57.279Z,92.21
2023-03-29T05:06:24.685Z,92.85
2023-03-29T05:08:53.532Z,93.56
2023-03-29T05:11:24.478Z,94.35
2023-03-29T05:13:51.858Z,91.95
2023-03-29T05:16:19.423Z,91.61
2023-03-29T05:18:46.822Z,91.24
2023-03-29T05:21:22.089Z,89.18
2023-03-29T05:23:50.056Z,89.34
2023-03-29T05:26:17.744Z,87.76
2023-03-29T05:28:45.217Z,89.27
2023-03-29T05:31:13.659Z,90.84
2023-03-29T05:33:43.466Z,91.29
2023-03-29T05:40:56.589Z,97.69
2023-03-29T05:43:26.233Z,95.27
2023-03-29T05:45:54.747Z,91.93
2023-03-29T05:48:23.966Z,91.10
2023-03-29T05:50:53.604Z,90.97
2023-03-29T05:53:23.723Z,90.60
2023-03-29T05:55:51.714Z,90.84
2023-03-29T05:58:21.792Z,90.04
2023-03-29T06:00:51.478Z,90.70
2023-03-29T06:03:23.805Z,93.36
2023-03-29T06:06:00.644Z,92.20
2023-03-29T06:08:29.187Z,90.73
2023-03-29T06:11:04.577Z,91.80
2023-03-29T06:13:35.725Z,92.20
2023-03-29T06:16:06.607Z,92.33
2023-03-29T06:18:34.994Z,89.56
2023-03-29T06:21:05.406Z,90.59
2023-03-29T06:23:34.884Z,90.36
2023-03-29T06:26:06.597Z,90.94
2023-03-29T06:28:34.344Z,89.68
2023-03-29T06:31:03.329Z,88.61
2023-03-29T13:47:58.818Z,93.72
2023-03-29T13:50:40.441Z,92.18
2023-03-29T13:53:23.281Z,92.14
2023-03-29T13:55:55.095Z,91.15
2023-03-29T13:58:27.491Z,90.87
2023-03-29T14:01:02.802Z,89.10
2023-03-29T14:03:41.277Z,88.30
2023-03-29T14:06:11.467Z,88.64
2023-03-29T14:08:45.449Z,88.04
2023-03-29T14:11:43.644Z,86.25
2023-03-29T14:14:12.279Z,85.79
2023-03-29T14:16:41.839Z,84.97
2023-03-29T14:19:21.672Z,85.53
2023-03-29T14:21:52.214Z,84.64
2023-03-29T14:24:27.199Z,84.32
2023-03-29T14:26:55.073Z,83.12
2023-03-29T14:29:31.503Z,84.38
2023-03-29T14:32:10.413Z,83.83
2023-03-29T14:34:38.610Z,85.48
2023-03-29T14:37:09.098Z,83.89
2023-03-29T14:39:37.500Z,84.12
2023-03-29T14:42:14.474Z,83.54
2023-03-29T14:44:43.836Z,82.52
2023-03-29T14:47:26.980Z,82.43
2023-03-29T14:49:58.916Z,82.01
2023-03-29T14:52:31.266Z,82.02
2023-03-29T14:55:02.076Z,80.63
2023-03-29T14:57:35.679Z,81.17
2023-03-29T15:00:23.146Z,81.18
2023-03-29T15:03:02.402Z,82.51
2023-03-29T15:05:39.920Z,82.24
2023-03-29T15:08:13.760Z,81.51
2023-03-29T15:10:45.258Z,81.82
2023-03-29T15:13:20.033Z,82.18
2023-03-29T15:18:35.073Z,81.38
2023-03-29T15:21:03.208Z,81.72
2023-03-29T15:23:46.862Z,82.10
2023-03-29T15:26:21.587Z,81.28
2023-03-29T15:29:03.145Z,81.92
2023-03-29T15:31:35.787Z,82.15
2023-03-29T15:34:11.211Z,82.48
2023-03-29T15:36:48.268Z,81.72
2023-03-29T15:39:17.888Z,81.05
2023-03-29T15:41:48.913Z,80.36
2023-03-29T15:44:17.762Z,80.05
2023-03-29T15:46:45.957Z,80.11
2023-03-29T15:49:14.380Z,80.93
2023-03-29T15:51:44.143Z,80.45
2023-03-29T15:54:11.709Z,80.11
2023-03-29T15:56:50.376Z,80.54
2023-03-29T15:59:18.229Z,78.28
2023-03-29T16:01:56.770Z,79.06
2023-03-29T16:04:25.447Z,79.06
2023-03-29T16:06:55.472Z,78.18
2023-03-29T16:09:25.559Z,78.37
2023-03-29T16:11:54.534Z,78.09
2023-03-29T16:14:27.906Z,79.08
2023-03-29T16:16:57.379Z,78.04
2023-03-29T16:19:26.740Z,78.92
2023-03-29T16:21:55.870Z,78.61
2023-03-29T16:24:26.715Z,78.79
2023-03-29T16:26:57.055Z,77.79
2023-03-29T16:29:25.759Z,77.86
2023-03-29T16:31:54.153Z,77.63
2023-03-29T16:34:23.021Z,78.32
2023-03-29T16:36:50.922Z,79.73
2023-03-29T16:39:19.939Z,77.96
2023-03-29T16:41:48.544Z,78.89
2023-03-29T16:44:19.577Z,78.39
2023-03-29T16:46:49.262Z,78.22
2023-03-29T16:49:19.587Z,78.19
2023-03-29T16:51:50.375Z,78.09
2023-03-29T16:54:19.014Z,77.56
2023-03-29T16:56:47.146Z,77.02
2023-03-29T16:59:15.496Z,78.34
2023-03-29T17:01:44.500Z,77.65
2023-03-29T17:04:12.753Z,77.75
2023-03-29T17:06:41.016Z,77.73
2023-03-29T17:09:08.732Z,78.12
2023-03-29T17:11:36.198Z,77.90
2023-03-29T17:14:04.110Z,77.55
2023-03-29T17:16:31.935Z,78.72
2023-03-29T17:19:02.534Z,77.75
2023-03-29T17:21:30.880Z,76.88
2023-03-29T17:23:58.791Z,77.30
2023-03-29T17:26:27.025Z,77.33
2023-03-29T17:28:54.716Z,77.77
2023-03-29T17:31:22.880Z,77.39
2023-03-29T17:33:52.345Z,76.61
2023-03-29T17:36:24.147Z,76.98
2023-03-29T17:38:52.047Z,76.86
2023-03-29T17:41:19.571Z,77.38
2023-03-29T17:43:52.179Z,76.78
2023-03-29T17:46:23.274Z,77.45
2023-03-29T17:48:53.694Z,77.29
2023-03-29T17:51:21.277Z,78.44
2023-03-29T17:53:48.734Z,78.47
2023-03-29T17:56:16.984Z,78.32
2023-03-29T17:58:45.052Z,77.75
2023-03-29T18:01:19.713Z,78.19
2023-03-29T18:03:48.535Z,77.61
2023-03-29T18:06:20.370Z,77.89
2023-03-29T18:08:48.557Z,78.29
2023-03-29T18:11:22.422Z,77.59
2023-03-29T18:13:51.437Z,78.59
2023-03-29T18:16:22.116Z,78.88
2023-03-29T18:18:51.127Z,80.47
2023-03-29T18:21:19.046Z,80.09
2023-03-29T18:23:49.331Z,80.25
2023-03-29T18:26:17.072Z,81.90
2023-03-29T18:28:48.928Z,82.11
2023-03-29T18:31:17.231Z,82.10
2023-03-29T18:33:46.973Z,81.41
2023-03-29T18:36:15.002Z,80.80
2023-03-29T18:38:43.985Z,81.53
2023-03-29T18:41:13.770Z,81.90
2023-03-29T18:43:43.168Z,82.44
2023-03-29T18:46:10.904Z,81.98
2023-03-29T18:48:42.174Z,84.03
2023-03-29T18:51:11.797Z,82.66
2023-03-29T18:53:42.212Z,82.75
2023-03-29T18:56:10.184Z,82.63
2023-03-29T18:58:37.825Z,82.18
2023-03-29T19:01:06.693Z,82.28
2023-03-29T19:03:35.873Z,83.29
2023-03-29T19:06:04.249Z,83.38
2023-03-29T19:08:36.707Z,82.78
2023-03-29T19:11:07.585Z,83.05
2023-03-29T19:13:35.676Z,82.80
2023-03-29T19:16:04.863Z,83.36
2023-03-29T19:18:33.241Z,83.33
2023-03-29T19:21:01.116Z,83.76
2023-03-29T19:23:28.763Z,83.58
2023-03-29T19:25:58.603Z,83.54
2023-03-29T19:28:27.519Z,84.71
2023-03-29T19:30:56.678Z,83.56
2023-03-29T19:33:24.837Z,84.01
2023-03-29T19:35:52.988Z,83.00
2023-03-29T19:38:21.588Z,83.17
2023-03-29T19:40:51.656Z,84.68
2023-03-29T19:43:20.822Z,85.38
2023-03-29T19:45:50.157Z,84.73
2023-03-29T19:48:23.680Z,84.72
2023-03-29T19:50:52.087Z,84.61
2023-03-29T19:53:21.342Z,85.33
2023-03-29T19:55:49.755Z,86.31
2023-03-29T19:58:19.575Z,85.38
2023-03-29T20:00:47.179Z,86.27
2023-03-29T20:03:17.971Z,86.69
2023-03-29T20:05:46.888Z,86.27
2023-03-29T20:08:14.298Z,85.51
2023-03-29T20:10:42.643Z,86.63
2023-03-29T20:13:10.768Z,86.48
2023-03-29T20:15:38.335Z,86.33
2023-03-29T20:18:06.227Z,87.74
2023-03-29T20:20:35.825Z,86.87
2023-03-29T20:23:05.226Z,87.43
2023-03-29T20:25:35.752Z,87.25
2023-03-29T20:28:04.027Z,87.80
2023-03-29T20:30:32.056Z,87.36
2023-03-29T20:33:01.085Z,87.27
2023-03-29T20:35:28.593Z,88.59
2023-03-29T20:37:56.452Z,88.56
2023-03-29T20:40:23.928Z,88.30
2023-03-29T20:42:51.475Z,87.64
2023-03-29T20:45:20.748Z,88.18
2023-03-29T20:47:58.021Z,85.93
2023-03-29T20:50:28.907Z,86.57
2023-03-29T20:52:57.184Z,88.15
2023-03-29T20:55:24.959Z,88.04
2023-03-29T20:58:12.327Z,87.11
2023-03-29T21:00:40.524Z,87.29
2023-03-29T21:03:08.860Z,87.42
2023-03-29T21:05:37.073Z,87.26
2023-03-29T21:08:04.607Z,87.88
2023-03-29T21:10:32.180Z,88.46
2023-03-29T21:13:00.411Z,88.88
2023-03-29T21:15:30.763Z,91.41
2023-03-29T21:17:58.959Z,91.45
2023-03-29T21:20:27.749Z,90.49
2023-03-29T21:22:55.374Z,91.15
2023-03-29T21:25:22.804Z,91.63
2023-03-29T21:27:50.362Z,90.67
2023-03-29T21:30:17.861Z,90.79
2023-03-29T21:32:45.776Z,91.34
2023-03-29T21:35:13.531Z,91.05
2023-03-29T21:37:41.470Z,90.96
2023-03-29T21:40:10.800Z,92.55
2023-03-29T21:42:39.098Z,93.09
2023-03-29T21:45:07.150Z,91.90
2023-03-29T21:47:35.190Z,92.92
2023-03-29T21:50:03.080Z,95.20
2023-03-29T21:52:30.916Z,93.49
2023-03-29T21:54:59.198Z,94.83
2023-03-29T21:57:26.798Z,95.05
2023-03-29T21:59:56.029Z,94.29
2023-03-29T22:02:23.550Z,94.92
2023-03-29T22:04:51.339Z,93.64
2023-03-29T22:07:22.833Z,93.33
2023-03-29T22:09:50.450Z,92.60
2023-03-29T22:12:19.440Z,91.91
2023-03-29T22:14:46.822Z,92.79
2023-03-29T22:17:16.124Z,92.97
2023-03-29T22:19:43.571Z,93.28
2023-03-29T22:22:14.337Z,92.75
2023-03-29T22:24:42.362Z,92.24
2023-03-29T22:27:15.732Z,92.40
2023-03-29T22:29:43.435Z,91.64
2023-03-29T22:32:11.008Z,91.74
2023-03-29T22:34:39.500Z,90.58
2023-03-29T22:37:06.962Z,89.93
2023-03-29T22:39:37.682Z,89.77
2023-03-29T22:42:05.117Z,90.00
2023-03-29T22:44:33.986Z,88.76
2023-03-29T22:47:02.125Z,90.23
2023-03-29T22:49:29.818Z,90.31
2023-03-29T22:51:57.339Z,91.54
2023-03-29T22:54:24.887Z,91.24
2023-03-29T22:56:52.372Z,90.79
2023-03-29T22:59:21.426Z,90.36
2023-03-29T23:01:50.078Z,90.14
2023-03-29T23:04:18.209Z,90.66
2023-03-29T23:06:46.367Z,90.14
2023-03-29T23:09:15.994Z,91.07
2023-03-29T23:11:44.494Z,91.30
2023-03-29T23:14:12.150Z,90.13
2023-03-29T23:16:39.727Z,90.17
2023-03-29T23:19:07.895Z,89.73
2023-03-29T23:21:37.074Z,90.36
2023-03-29T23:24:19.791Z,91.90
2023-03-29T23:26:49.107Z,94.17
2023-03-29T23:29:16.596Z,91.77
2023-03-29T23:31:44.496Z,93.60
2023-03-29T23:34:13.532Z,94.03
2023-03-29T23:36:41.086Z,94.12
2023-03-29T23:39:10.036Z,93.60
2023-03-29T23:41:40.263Z,92.26
2023-03-29T23:44:10.395Z,92.59
2023-03-29T23:46:37.850Z,92.50
2023-03-29T23:49:05.432Z,92.91
2023-03-29T23:51:35.185Z,93.41
2023-03-29T23:54:03.003Z,93.09
2023-03-29T23:56:38.806Z,93.32
2023-03-29T23:59:06.456Z,93.85
